Glabbeek-Zuurbemde, Belgium
Current Conditions -  °F | °C
As of 7:25 AM on Sunday 21 Dec 2014 (Local Time) from EBDT Reporting Station
Few Clouds Few Clouds  
Wind Chill: 35°   Ceiling: Unl
Heat Index: 39°   Visibility: 6mi
Dew Point: 37°   Wind: 6mph
Humidity: 93%   Direction: 220°SW
Pressure: 30.42"   Gusts: NA
Location:  50.87°N, 4.94°E
Report Text: EBDT 210625Z AUTO 22005KT 9999 FEW240/// 04/03 Q1030 BLU
Loading
Personal Weather Stations






























Interactive Weather Map New forecast layout! Learn more

10-Day Weather Forecast

Advertisements
Track Severe Weather on mobile